createdAt,value
2024-02-13T00:00:27.068Z,3.34
2024-02-13T00:01:27.145Z,3.28
2024-02-13T00:02:27.100Z,3.36
2024-02-13T00:03:27.101Z,3.44
2024-02-13T00:04:27.173Z,3.53
2024-02-13T00:05:27.094Z,3.56
2024-02-13T00:06:27.026Z,3.48
2024-02-13T00:07:27.078Z,3.42
2024-02-13T00:08:33.280Z,3.47
2024-02-13T00:09:27.008Z,3.48
2024-02-13T00:10:27.054Z,3.51
2024-02-13T00:11:27.054Z,3.50
2024-02-13T00:12:26.997Z,3.51
2024-02-13T00:13:26.983Z,3.60
2024-02-13T00:14:27.038Z,3.66
2024-02-13T00:15:26.978Z,3.60
2024-02-13T00:16:27.059Z,3.78
2024-02-13T00:17:26.958Z,3.81
2024-02-13T00:18:27.030Z,3.80
2024-02-13T00:19:26.945Z,3.81
2024-02-13T00:20:26.893Z,3.81
2024-02-13T00:21:26.924Z,3.84
2024-02-13T00:22:26.973Z,3.92
2024-02-13T00:23:26.896Z,3.86
2024-02-13T00:24:26.913Z,3.73
2024-02-13T00:25:26.854Z,3.62
2024-02-13T00:26:26.888Z,3.58
2024-02-13T00:27:26.848Z,3.53
2024-02-13T00:28:26.921Z,3.40
2024-02-13T00:29:26.901Z,3.32
2024-02-13T00:30:26.915Z,3.31
2024-02-13T00:31:26.785Z,3.28
2024-02-13T00:32:26.900Z,3.40
2024-02-13T00:33:26.854Z,3.44
2024-02-13T00:34:26.972Z,3.48
2024-02-13T00:35:26.798Z,3.44
2024-02-13T00:36:26.781Z,3.51
2024-02-13T00:37:26.821Z,3.58
2024-02-13T00:38:26.771Z,3.62
2024-02-13T00:39:26.713Z,3.59
2024-02-13T00:40:26.825Z,3.56
2024-02-13T00:41:26.738Z,3.51
2024-02-13T00:42:26.732Z,3.48
2024-02-13T00:43:26.691Z,3.55
2024-02-13T00:44:26.782Z,3.65
2024-02-13T00:45:26.707Z,3.73
2024-02-13T00:46:26.742Z,3.59
2024-02-13T00:47:26.724Z,3.55
2024-02-13T00:48:26.719Z,3.60
2024-02-13T00:49:26.708Z,3.59
2024-02-13T00:50:26.711Z,3.56
2024-02-13T00:51:26.627Z,3.53
2024-02-13T00:52:26.735Z,3.48
2024-02-13T00:53:26.616Z,3.56
2024-02-13T00:54:26.649Z,3.58
2024-02-13T00:55:26.554Z,3.56
2024-02-13T00:56:26.647Z,3.62
2024-02-13T00:57:26.610Z,3.56
2024-02-13T00:58:26.668Z,3.50
2024-02-13T00:59:26.780Z,3.42
2024-02-13T01:00:26.528Z,3.40
2024-02-13T01:01:26.548Z,3.58
2024-02-13T01:02:26.585Z,3.60
2024-02-13T01:03:26.535Z,3.60
2024-02-13T01:04:26.647Z,3.55
2024-02-13T01:05:26.535Z,3.42
2024-02-13T01:06:26.505Z,3.44
2024-02-13T01:07:26.488Z,3.45
2024-02-13T01:08:26.567Z,3.58
2024-02-13T01:09:26.514Z,3.60
2024-02-13T01:10:26.599Z,3.51
2024-02-13T01:11:26.470Z,3.44
2024-02-13T01:12:26.450Z,3.44
2024-02-13T01:13:26.480Z,3.37
2024-02-13T01:14:26.483Z,3.40
2024-02-13T01:15:26.396Z,3.32
2024-02-13T01:16:26.501Z,3.26
2024-02-13T01:17:26.398Z,3.19
2024-02-13T01:18:26.514Z,3.16
2024-02-13T01:19:26.423Z,3.11
2024-02-13T01:20:26.432Z,3.07
2024-02-13T01:21:26.424Z,3.05
2024-02-13T01:22:26.447Z,3.00
2024-02-13T01:23:26.407Z,2.92
2024-02-13T01:24:26.299Z,2.90
2024-02-13T01:25:26.364Z,2.82
2024-02-13T01:26:26.401Z,2.85
2024-02-13T01:27:26.313Z,2.89
2024-02-13T01:28:26.375Z,2.89
2024-02-13T01:29:26.575Z,2.87
2024-02-13T01:30:26.315Z,2.98
2024-02-13T01:31:26.300Z,3.01
2024-02-13T01:32:26.349Z,3.08
2024-02-13T01:33:26.543Z,3.07
2024-02-13T01:34:26.340Z,3.10
2024-02-13T01:35:26.256Z,3.03
2024-02-13T01:36:26.235Z,2.97
2024-02-13T01:37:26.259Z,2.93
2024-02-13T01:38:26.341Z,2.87
2024-02-13T01:39:26.213Z,2.77
2024-02-13T01:40:26.279Z,2.69
2024-02-13T01:41:26.291Z,2.71
2024-02-13T01:42:26.171Z,2.68
2024-02-13T01:43:26.327Z,2.62
2024-02-13T01:44:26.174Z,2.67
2024-02-13T01:45:26.155Z,2.68
2024-02-13T01:46:26.201Z,2.65
2024-02-13T01:47:26.264Z,2.65
2024-02-13T01:48:26.308Z,2.60
2024-02-13T01:49:26.145Z,2.49
2024-02-13T01:50:26.115Z,2.46
2024-02-13T01:51:26.144Z,2.44
2024-02-13T01:52:26.187Z,2.42
2024-02-13T01:53:26.092Z,2.60
2024-02-13T01:54:26.051Z,2.62
2024-02-13T01:55:26.098Z,2.60
2024-02-13T01:56:26.109Z,2.50
2024-02-13T01:57:26.014Z,2.49
2024-02-13T01:58:26.126Z,2.44
2024-02-13T01:59:26.037Z,2.54
2024-02-13T02:00:26.086Z,2.62
2024-02-13T02:01:26.016Z,2.65
2024-02-13T02:02:25.990Z,2.69
2024-02-13T02:03:26.022Z,2.67
2024-02-13T02:04:26.221Z,2.64
2024-02-13T02:05:26.017Z,2.51
2024-02-13T02:06:26.029Z,2.47
2024-02-13T02:07:25.985Z,2.43
2024-02-13T02:08:26.035Z,2.42
2024-02-13T02:09:25.937Z,2.38
2024-02-13T02:10:26.017Z,2.32
2024-02-13T02:11:26.646Z,2.36
2024-02-13T02:12:25.900Z,2.57
2024-02-13T02:13:25.880Z,2.51
2024-02-13T02:14:25.893Z,-40.00
2024-02-13T02:15:25.880Z,2.49
2024-02-13T02:16:25.982Z,2.38
2024-02-13T02:17:25.903Z,2.39
2024-02-13T02:18:26.145Z,2.31
2024-02-13T02:19:25.892Z,2.31
2024-02-13T02:20:25.830Z,2.29
2024-02-13T02:21:25.842Z,2.29
2024-02-13T02:22:25.903Z,2.42
2024-02-13T02:23:25.826Z,2.47
2024-02-13T02:24:25.860Z,2.49
2024-02-13T02:25:25.803Z,2.50
2024-02-13T02:26:25.830Z,2.47
2024-02-13T02:27:25.843Z,2.46
2024-02-13T02:28:25.825Z,2.51
2024-02-13T02:29:25.776Z,2.50
2024-02-13T02:30:25.733Z,2.57
2024-02-13T02:31:25.766Z,2.56
2024-02-13T02:32:25.894Z,2.56
2024-02-13T02:33:25.741Z,2.51
2024-02-13T02:34:25.835Z,2.47
2024-02-13T02:35:25.707Z,2.39
2024-02-13T02:36:25.706Z,2.44
2024-02-13T02:37:25.676Z,2.47
2024-02-13T02:38:25.722Z,2.53
2024-02-13T02:39:25.678Z,2.56
2024-02-13T02:40:25.747Z,2.67
2024-02-13T02:41:25.659Z,2.64
2024-02-13T02:42:25.652Z,2.71
2024-02-13T02:43:25.669Z,2.92
2024-02-13T02:44:25.658Z,3.03
2024-02-13T02:45:25.702Z,3.21
2024-02-13T02:46:25.772Z,3.25
2024-02-13T02:47:25.690Z,3.23
2024-02-13T02:48:25.647Z,3.37
2024-02-13T02:49:25.625Z,3.40
2024-02-13T02:50:25.584Z,3.40
2024-02-13T02:51:25.589Z,3.42
2024-02-13T02:52:25.635Z,3.53
2024-02-13T02:53:25.565Z,3.55
2024-02-13T02:54:25.545Z,3.50
2024-02-13T02:55:25.560Z,3.50
2024-02-13T02:56:25.546Z,3.51
2024-02-13T02:57:25.507Z,3.48
2024-02-13T02:58:25.561Z,3.47
2024-02-13T02:59:25.525Z,3.42
2024-02-13T03:00:25.496Z,3.45
2024-02-13T03:01:25.435Z,3.51
2024-02-13T03:02:25.549Z,3.59
2024-02-13T03:03:25.597Z,3.63
2024-02-13T03:04:25.464Z,3.70
2024-02-13T03:05:25.552Z,3.74
2024-02-13T03:06:25.465Z,3.95
2024-02-13T03:07:25.449Z,3.92
2024-02-13T03:08:25.457Z,3.99
2024-02-13T03:09:25.445Z,4.02
2024-02-13T03:10:25.378Z,3.98
2024-02-13T03:11:25.391Z,3.98
2024-02-13T03:12:25.327Z,4.02
2024-02-13T03:13:25.404Z,3.99
2024-02-13T03:14:25.381Z,4.01
2024-02-13T03:15:25.374Z,4.06
2024-02-13T03:16:25.309Z,4.05
2024-02-13T03:17:25.368Z,4.05
2024-02-13T03:18:25.419Z,4.08
2024-02-13T03:19:25.379Z,4.16
2024-02-13T03:20:25.378Z,4.16
2024-02-13T03:21:25.342Z,4.17
2024-02-13T03:22:25.323Z,4.16
2024-02-13T03:23:25.336Z,4.13
2024-02-13T03:24:25.243Z,4.10
2024-02-13T03:25:25.271Z,4.16
2024-02-13T03:26:25.231Z,4.19
2024-02-13T03:27:25.279Z,4.20
2024-02-13T03:28:25.200Z,4.13
2024-02-13T03:29:25.238Z,4.13
2024-02-13T03:30:25.211Z,4.22
2024-02-13T03:31:25.156Z,4.22
2024-02-13T03:32:25.252Z,4.31
2024-02-13T03:33:25.402Z,4.26
2024-02-13T03:34:25.229Z,4.31
2024-02-13T03:35:25.212Z,4.32
2024-02-13T03:36:25.206Z,4.30
2024-02-13T03:37:25.161Z,4.35
2024-02-13T03:38:25.230Z,4.28
2024-02-13T03:39:25.132Z,4.26
2024-02-13T03:40:25.127Z,4.26
2024-02-13T03:41:25.108Z,4.24
2024-02-13T03:42:25.117Z,4.26
2024-02-13T03:43:25.038Z,4.28
2024-02-13T03:44:25.168Z,4.22
2024-02-13T03:45:25.065Z,4.19
2024-02-13T03:46:25.048Z,4.19
2024-02-13T03:47:25.132Z,4.20
2024-02-13T03:48:25.310Z,4.19
2024-02-13T03:49:25.104Z,4.23
2024-02-13T03:50:25.174Z,4.30
2024-02-13T03:51:25.014Z,4.32
2024-02-13T03:52:25.028Z,4.30
2024-02-13T03:53:25.064Z,4.30
2024-02-13T03:54:24.992Z,4.30
2024-02-13T03:55:25.127Z,4.31
2024-02-13T03:56:24.948Z,4.26
2024-02-13T03:57:24.959Z,4.26
2024-02-13T03:58:24.979Z,4.24
2024-02-13T03:59:24.966Z,4.26
2024-02-13T04:00:24.921Z,4.26
2024-02-13T04:01:25.015Z,4.34
2024-02-13T04:02:24.989Z,4.37
2024-02-13T04:03:24.905Z,4.37
2024-02-13T04:04:24.917Z,4.35
2024-02-13T04:05:24.939Z,4.34
2024-02-13T04:06:24.976Z,4.26
2024-02-13T04:07:24.980Z,4.30
2024-02-13T04:08:24.865Z,4.34
2024-02-13T04:09:24.809Z,4.37
2024-02-13T04:10:24.791Z,4.34
2024-02-13T04:11:24.893Z,4.35
2024-02-13T04:12:24.907Z,4.30
2024-02-13T04:13:24.834Z,4.24
2024-02-13T04:14:24.848Z,4.23
2024-02-13T04:15:24.802Z,4.28
2024-02-13T04:16:24.805Z,4.26
2024-02-13T04:17:24.798Z,4.30
2024-02-13T04:18:24.988Z,4.26
2024-02-13T04:19:24.762Z,4.30
2024-02-13T04:20:24.813Z,4.26
2024-02-13T04:21:24.773Z,4.24
2024-02-13T04:22:24.777Z,4.17
2024-02-13T04:23:24.792Z,4.19
2024-02-13T04:24:24.754Z,4.19
2024-02-13T04:25:24.683Z,4.17
2024-02-13T04:26:31.503Z,4.13
2024-02-13T04:27:24.704Z,4.12
2024-02-13T04:28:24.743Z,4.12
2024-02-13T04:29:24.783Z,4.28
2024-02-13T04:30:24.684Z,4.26
2024-02-13T04:31:24.653Z,4.26
2024-02-13T04:32:24.927Z,4.24
2024-02-13T04:33:24.759Z,4.24
2024-02-13T04:34:25.267Z,4.23
2024-02-13T04:35:24.698Z,4.23
2024-02-13T04:36:24.644Z,4.23
2024-02-13T04:37:24.616Z,4.22
2024-02-13T04:38:24.608Z,4.23
2024-02-13T04:39:24.675Z,4.23
2024-02-13T04:40:24.603Z,4.28
2024-02-13T04:41:24.547Z,4.24
2024-02-13T04:42:24.588Z,4.20
2024-02-13T04:43:24.539Z,4.19
2024-02-13T04:44:24.504Z,4.19
2024-02-13T04:45:24.624Z,4.23
2024-02-13T04:46:24.519Z,4.26
2024-02-13T04:47:24.637Z,4.19
2024-02-13T04:48:24.576Z,4.13
2024-02-13T04:49:24.578Z,4.10
2024-02-13T04:50:24.483Z,3.99
2024-02-13T04:51:24.538Z,3.94
2024-02-13T04:52:24.506Z,3.86
2024-02-13T04:53:24.522Z,3.84
2024-02-13T04:54:24.461Z,3.84
2024-02-13T04:55:24.442Z,3.83
2024-02-13T04:56:24.469Z,3.76
2024-02-13T04:57:24.499Z,3.69
2024-02-13T04:58:24.397Z,3.68
2024-02-13T04:59:24.584Z,3.63
2024-02-13T05:00:24.384Z,3.66
2024-02-13T05:01:24.395Z,3.63
2024-02-13T05:02:24.359Z,3.66
2024-02-13T05:03:24.407Z,3.74
2024-02-13T05:04:24.362Z,3.77
2024-02-13T05:05:24.373Z,3.74
2024-02-13T05:06:24.350Z,3.74
2024-02-13T05:07:24.293Z,3.69
2024-02-13T05:08:24.318Z,3.65
2024-02-13T05:09:24.373Z,3.62
2024-02-13T05:10:24.318Z,3.63
2024-02-13T05:11:24.361Z,3.74
2024-02-13T05:12:24.231Z,3.76
2024-02-13T05:13:24.275Z,3.81
2024-02-13T05:14:24.425Z,3.95
2024-02-13T05:15:24.320Z,3.99
2024-02-13T05:16:24.298Z,4.01
2024-02-13T05:17:24.331Z,4.08
2024-02-13T05:18:24.424Z,4.12
2024-02-13T05:19:24.406Z,4.13
2024-02-13T05:20:24.333Z,4.17
2024-02-13T05:21:24.225Z,4.19
2024-02-13T05:22:24.235Z,4.19
2024-02-13T05:23:24.198Z,4.26
2024-02-13T05:24:24.180Z,4.31
2024-02-13T05:25:24.158Z,4.37
2024-02-13T05:26:24.445Z,4.34
2024-02-13T05:27:24.133Z,4.41
2024-02-13T05:28:24.126Z,4.45
2024-02-13T05:29:24.128Z,4.50
2024-02-13T05:30:24.126Z,4.50
2024-02-13T05:31:24.224Z,4.50
2024-02-13T05:32:24.256Z,4.53
2024-02-13T05:33:24.358Z,4.56
2024-02-13T05:34:24.251Z,4.59
2024-02-13T05:35:24.185Z,4.59
2024-02-13T05:36:24.113Z,4.58
2024-02-13T05:37:24.163Z,4.60
2024-02-13T05:38:24.221Z,4.60
2024-02-13T05:39:24.136Z,4.59
2024-02-13T05:40:23.999Z,4.56
2024-02-13T05:41:24.190Z,4.62
2024-02-13T05:42:23.988Z,4.60
2024-02-13T05:43:24.106Z,4.60
2024-02-13T05:44:23.939Z,4.63
2024-02-13T05:45:24.086Z,4.62
2024-02-13T05:46:24.001Z,4.63
2024-02-13T05:47:23.926Z,4.62
2024-02-13T05:48:23.975Z,4.60
2024-02-13T05:49:24.105Z,4.60
2024-02-13T05:50:23.917Z,4.62
2024-02-13T05:51:23.889Z,4.56
2024-02-13T05:52:23.891Z,4.56
2024-02-13T05:53:23.907Z,4.53
2024-02-13T05:54:23.947Z,4.50
2024-02-13T05:55:23.833Z,4.48
2024-02-13T05:56:27.959Z,4.34
2024-02-13T05:57:23.824Z,4.30
2024-02-13T05:58:23.738Z,4.19
2024-02-13T05:59:23.832Z,4.12
2024-02-13T06:00:23.912Z,4.06
2024-02-13T06:01:24.081Z,4.04
2024-02-13T06:02:23.850Z,3.92
2024-02-13T06:03:23.755Z,3.88
2024-02-13T06:04:23.750Z,3.92
2024-02-13T06:05:23.804Z,3.88
2024-02-13T06:06:23.907Z,3.88
2024-02-13T06:07:23.688Z,3.96
2024-02-13T06:08:23.756Z,3.96
2024-02-13T06:09:23.695Z,4.02
2024-02-13T06:10:23.679Z,4.10
2024-02-13T06:11:23.846Z,4.10
2024-02-13T06:12:23.669Z,4.08
2024-02-13T06:13:23.634Z,4.16
2024-02-13T06:14:23.838Z,4.13
2024-02-13T06:15:23.651Z,4.19
2024-02-13T06:16:23.652Z,4.16
2024-02-13T06:17:23.840Z,4.19
2024-02-13T06:18:23.686Z,4.17
2024-02-13T06:19:23.614Z,-40.00
2024-02-13T06:20:23.640Z,-40.00
2024-02-13T06:21:25.677Z,3.96
2024-02-13T06:22:23.545Z,3.95
2024-02-13T06:23:23.664Z,4.02
2024-02-13T06:24:23.595Z,3.96
2024-02-13T06:25:23.591Z,3.91
2024-02-13T06:26:23.584Z,3.86
2024-02-13T06:27:23.542Z,3.78
2024-02-13T06:28:23.598Z,3.86
2024-02-13T06:29:23.507Z,3.83
2024-02-13T06:30:23.473Z,3.81
2024-02-13T06:31:23.500Z,3.78
2024-02-13T06:32:23.497Z,3.80
2024-02-13T06:33:23.651Z,3.74
2024-02-13T06:34:23.589Z,3.76
2024-02-13T06:35:23.421Z,3.68
2024-02-13T06:36:23.439Z,3.69
2024-02-13T06:37:23.414Z,3.66
2024-02-13T06:38:23.422Z,3.68
2024-02-13T06:39:23.420Z,3.62
2024-02-13T06:40:23.480Z,3.63
2024-02-13T06:41:23.485Z,3.63
2024-02-13T06:42:23.352Z,3.68
2024-02-13T06:43:23.398Z,3.66
2024-02-13T06:44:23.498Z,3.69
2024-02-13T06:45:23.459Z,3.77
2024-02-13T06:46:23.406Z,3.78
2024-02-13T06:47:23.393Z,3.84
2024-02-13T06:48:23.609Z,3.94
2024-02-13T06:49:23.364Z,3.99
2024-02-13T06:50:23.359Z,4.08
2024-02-13T06:51:23.438Z,4.12
2024-02-13T06:52:23.330Z,4.17
2024-02-13T06:53:23.303Z,4.14
2024-02-13T06:54:23.283Z,4.13
2024-02-13T06:55:23.278Z,4.23
2024-02-13T06:56:23.255Z,4.26
2024-02-13T06:57:23.350Z,4.30
2024-02-13T06:58:23.251Z,4.40
2024-02-13T06:59:23.272Z,4.45
2024-02-13T07:00:23.233Z,4.53
2024-02-13T07:01:23.247Z,4.55
2024-02-13T07:02:23.230Z,4.63
2024-02-13T07:03:23.321Z,4.66
2024-02-13T07:04:23.272Z,4.71
2024-02-13T07:05:23.224Z,4.75
2024-02-13T07:06:37.583Z,4.78
2024-02-13T07:07:32.742Z,4.80
2024-02-13T07:08:23.409Z,4.82
2024-02-13T07:09:23.348Z,4.86
2024-02-13T07:10:23.240Z,4.80
2024-02-13T07:11:23.151Z,4.80
2024-02-13T07:12:23.097Z,4.80
2024-02-13T07:13:23.116Z,4.84
2024-02-13T07:14:25.808Z,4.86
2024-02-13T07:15:23.154Z,4.84
2024-02-13T07:16:23.097Z,4.86
2024-02-13T07:17:23.134Z,4.87
2024-02-13T07:18:23.213Z,4.84
2024-02-13T07:19:23.222Z,4.92
2024-02-13T07:20:23.180Z,4.94
2024-02-13T07:21:25.385Z,4.99
2024-02-13T07:22:23.017Z,4.99
2024-02-13T07:23:23.052Z,5.02
2024-02-13T07:24:22.969Z,5.08
2024-02-13T07:25:23.050Z,5.11
2024-02-13T07:26:23.039Z,5.12
2024-02-13T07:27:22.952Z,5.12
2024-02-13T07:28:22.952Z,5.10
2024-02-13T07:29:22.996Z,5.08
2024-02-13T07:30:22.932Z,5.05
2024-02-13T07:31:23.020Z,5.02
2024-02-13T07:32:22.930Z,4.97
2024-02-13T07:33:23.245Z,4.94
2024-02-13T07:34:23.045Z,4.94
2024-02-13T07:35:22.974Z,4.96
2024-02-13T07:36:22.922Z,4.92
2024-02-13T07:37:22.983Z,4.99
2024-02-13T07:38:22.884Z,5.02
2024-02-13T07:39:22.855Z,5.10
2024-02-13T07:40:22.852Z,5.39
2024-02-13T07:41:22.860Z,6.44
2024-02-13T07:42:22.802Z,7.20
2024-02-13T07:43:22.923Z,7.83
2024-02-13T07:44:22.941Z,8.01
2024-02-13T07:45:22.803Z,7.70
2024-02-13T07:46:22.800Z,7.40
2024-02-13T07:47:22.983Z,7.18
2024-02-13T07:48:23.126Z,7.02
2024-02-13T07:49:22.778Z,6.88
2024-02-13T07:50:22.903Z,6.78
2024-02-13T07:51:22.775Z,6.67
2024-02-13T07:52:22.720Z,6.60
2024-02-13T07:53:22.820Z,6.56
2024-02-13T07:54:22.771Z,6.56
2024-02-13T07:55:22.720Z,6.59
2024-02-13T07:56:22.721Z,6.52
2024-02-13T07:57:22.932Z,6.52
2024-02-13T07:58:22.665Z,6.56
2024-02-13T07:59:22.667Z,6.59
2024-02-13T08:00:22.799Z,6.64
2024-02-13T08:01:22.669Z,6.66
2024-02-13T08:02:22.680Z,6.63
2024-02-13T08:03:22.626Z,6.63
2024-02-13T08:04:22.639Z,6.56
2024-02-13T08:05:22.760Z,6.46
2024-02-13T08:06:22.805Z,6.44
2024-02-13T08:07:22.580Z,6.42
2024-02-13T08:08:22.601Z,6.39
2024-02-13T08:09:22.616Z,6.39
2024-02-13T08:10:22.569Z,6.38
2024-02-13T08:11:22.857Z,6.45
2024-02-13T08:12:22.576Z,6.42
2024-02-13T08:13:22.604Z,6.48
2024-02-13T08:14:22.578Z,6.42
2024-02-13T08:15:22.520Z,6.45
2024-02-13T08:16:22.525Z,6.45
2024-02-13T08:17:22.576Z,6.62
2024-02-13T08:18:22.549Z,6.59
2024-02-13T08:19:22.481Z,6.59
2024-02-13T08:20:22.544Z,6.67
2024-02-13T08:21:22.653Z,6.69
2024-02-13T08:22:22.551Z,6.77
2024-02-13T08:23:22.502Z,6.74
2024-02-13T08:24:22.609Z,6.75
2024-02-13T08:25:22.448Z,6.74
2024-02-13T08:26:22.468Z,6.87
2024-02-13T08:27:22.485Z,6.96
2024-02-13T08:28:22.423Z,6.95
2024-02-13T08:29:22.460Z,7.00
2024-02-13T08:30:22.367Z,6.95
2024-02-13T08:31:22.399Z,7.07
2024-02-13T08:32:22.330Z,7.17
2024-02-13T08:33:22.555Z,7.20
2024-02-13T08:34:22.534Z,7.28
2024-02-13T08:35:22.578Z,7.32
2024-02-13T08:36:22.381Z,7.32
2024-02-13T08:37:22.351Z,7.29
2024-02-13T08:38:22.353Z,7.25
2024-02-13T08:39:22.413Z,7.31
2024-02-13T08:40:22.289Z,7.38
2024-02-13T08:41:22.307Z,7.33
2024-02-13T08:42:22.289Z,7.36
2024-02-13T08:43:22.287Z,7.33
2024-02-13T08:44:22.274Z,7.40
2024-02-13T08:45:24.745Z,7.28
2024-02-13T08:46:22.254Z,7.28
2024-02-13T08:47:22.325Z,7.25
2024-02-13T08:48:22.388Z,7.24
2024-02-13T08:49:22.603Z,7.32
2024-02-13T08:50:22.521Z,7.36
2024-02-13T08:51:22.242Z,7.32
2024-02-13T08:52:22.164Z,7.36
2024-02-13T08:53:22.280Z,7.47
2024-02-13T08:54:22.190Z,7.56
2024-02-13T08:55:22.151Z,7.57
2024-02-13T08:56:22.276Z,7.57
2024-02-13T08:57:22.129Z,7.67
2024-02-13T08:58:22.143Z,7.75
2024-02-13T08:59:22.165Z,7.73
2024-02-13T09:00:22.157Z,7.87
2024-02-13T09:01:22.190Z,7.87
2024-02-13T09:02:22.193Z,8.06
2024-02-13T09:03:22.079Z,8.19
2024-02-13T09:04:22.254Z,8.15
2024-02-13T09:05:22.192Z,8.23
2024-02-13T09:06:22.247Z,8.23
2024-02-13T09:07:22.139Z,8.20
2024-02-13T09:08:22.119Z,8.34
2024-02-13T09:09:22.056Z,8.48
2024-02-13T09:10:22.037Z,8.52
2024-02-13T09:11:22.068Z,8.70
2024-02-13T09:12:21.990Z,8.76
2024-02-13T09:13:22.091Z,8.89
2024-02-13T09:14:22.001Z,9.00
2024-02-13T09:15:21.974Z,9.08
2024-02-13T09:16:21.974Z,9.16
2024-02-13T09:17:21.966Z,9.18
2024-02-13T09:18:22.063Z,9.06
2024-02-13T09:19:22.060Z,8.94
2024-02-13T09:20:21.981Z,8.81
2024-02-13T09:21:21.905Z,8.66
2024-02-13T09:22:21.912Z,8.58
2024-02-13T09:23:21.968Z,8.69
2024-02-13T09:24:21.961Z,8.74
2024-02-13T09:25:22.003Z,8.91
2024-02-13T09:26:22.008Z,8.92
2024-02-13T09:27:21.866Z,8.92
2024-02-13T09:28:21.831Z,8.88
2024-02-13T09:29:21.872Z,8.88
2024-02-13T09:30:21.926Z,8.71
2024-02-13T09:31:21.807Z,8.74
2024-02-13T09:32:21.844Z,8.81
2024-02-13T09:33:22.027Z,8.73
2024-02-13T09:34:21.925Z,8.55
2024-02-13T09:35:21.825Z,8.58
2024-02-13T09:36:21.858Z,8.52
2024-02-13T09:37:21.758Z,8.51
2024-02-13T09:38:21.742Z,8.61
2024-02-13T09:39:21.760Z,8.89
2024-02-13T09:40:21.691Z,9.11
2024-02-13T09:41:21.765Z,9.31
2024-02-13T09:42:21.810Z,9.14
2024-02-13T09:43:21.685Z,9.13
2024-02-13T09:44:21.726Z,9.13
2024-02-13T09:45:21.721Z,9.28
2024-02-13T09:46:21.702Z,9.31
2024-02-13T09:47:21.722Z,9.80
2024-02-13T09:48:21.945Z,10.38
2024-02-13T09:49:21.758Z,10.78
2024-02-13T09:50:21.667Z,10.84
2024-02-13T09:51:21.611Z,10.51
2024-02-13T09:52:21.706Z,10.17
2024-02-13T09:53:21.637Z,10.33
2024-02-13T09:54:21.699Z,10.26
2024-02-13T09:55:21.580Z,10.04
2024-02-13T09:56:21.586Z,9.76
2024-02-13T09:57:21.593Z,9.73
2024-02-13T09:58:21.580Z,9.62
2024-02-13T09:59:21.623Z,9.65
2024-02-13T10:00:21.574Z,9.66
2024-02-13T10:01:21.561Z,9.86
2024-02-13T10:02:21.549Z,10.01
2024-02-13T10:03:21.579Z,10.04
2024-02-13T10:04:21.565Z,10.15
2024-02-13T10:05:21.638Z,10.07
2024-02-13T10:06:21.581Z,9.99
2024-02-13T10:07:21.506Z,10.10
2024-02-13T10:08:21.522Z,10.40
2024-02-13T10:09:21.500Z,10.35
2024-02-13T10:10:21.471Z,10.53
2024-02-13T10:11:21.553Z,10.38
2024-02-13T10:12:21.395Z,10.02
2024-02-13T10:13:21.407Z,9.84
2024-02-13T10:14:21.435Z,9.77
2024-02-13T10:15:21.431Z,9.46
2024-02-13T10:16:21.443Z,9.65
2024-02-13T10:17:21.485Z,9.79
2024-02-13T10:18:21.633Z,9.83
2024-02-13T10:19:21.432Z,9.66
2024-02-13T10:20:21.407Z,9.46
2024-02-13T10:21:21.355Z,9.51
2024-02-13T10:22:21.344Z,9.58
2024-02-13T10:23:21.335Z,9.43
2024-02-13T10:24:21.307Z,9.41
2024-02-13T10:25:24.406Z,9.69
2024-02-13T10:26:21.376Z,9.84
2024-02-13T10:27:21.353Z,9.94
2024-02-13T10:28:21.252Z,10.15
2024-02-13T10:29:21.292Z,10.25
2024-02-13T10:30:21.278Z,10.26
2024-02-13T10:31:21.305Z,10.37
2024-02-13T10:32:21.351Z,10.28
2024-02-13T10:33:21.346Z,10.28
2024-02-13T10:34:21.204Z,10.05
2024-02-13T10:35:21.262Z,9.86
2024-02-13T10:36:21.269Z,10.07
2024-02-13T10:37:21.228Z,10.22
2024-02-13T10:38:21.293Z,10.53
2024-02-13T10:39:21.143Z,10.92
2024-02-13T10:40:21.219Z,11.14
2024-02-13T10:41:21.117Z,10.92
2024-02-13T10:42:21.144Z,10.75
2024-02-13T10:43:21.105Z,10.96
2024-02-13T10:44:21.200Z,11.07
2024-02-13T10:45:21.125Z,11.55
2024-02-13T10:46:21.059Z,11.83
2024-02-13T10:47:21.140Z,11.75
2024-02-13T10:48:21.116Z,11.32
2024-02-13T10:49:21.151Z,10.82
2024-02-13T10:50:21.116Z,10.51
2024-02-13T10:51:21.054Z,10.31
2024-02-13T10:52:21.048Z,10.38
2024-02-13T10:53:21.055Z,10.63
2024-02-13T10:54:20.992Z,10.51
2024-02-13T10:55:21.095Z,10.48
2024-02-13T10:56:21.056Z,10.38
2024-02-13T10:57:20.993Z,10.44
2024-02-13T10:58:24.502Z,11.00
2024-02-13T10:59:21.006Z,11.51
2024-02-13T11:00:21.021Z,11.12
2024-02-13T11:01:23.818Z,11.51
2024-02-13T11:02:21.052Z,12.02
2024-02-13T11:03:21.025Z,12.28
2024-02-13T11:04:20.926Z,11.73
2024-02-13T11:05:21.016Z,11.44
2024-02-13T11:06:20.975Z,11.81
2024-02-13T11:07:20.962Z,11.83
2024-02-13T11:08:20.950Z,11.65
2024-02-13T11:09:20.903Z,11.95
2024-02-13T11:10:20.876Z,11.68
2024-02-13T11:11:20.930Z,11.55
2024-02-13T11:12:20.924Z,11.25
2024-02-13T11:13:21.834Z,11.23
2024-02-13T11:14:20.876Z,11.18
2024-02-13T11:15:20.802Z,11.02
2024-02-13T11:16:20.809Z,10.90
2024-02-13T11:17:20.968Z,10.84
2024-02-13T11:18:20.867Z,10.75
2024-02-13T11:19:20.789Z,10.61
2024-02-13T11:20:20.809Z,10.31
2024-02-13T11:21:20.782Z,10.31
2024-02-13T11:22:20.786Z,10.23
2024-02-13T11:23:20.748Z,10.05
2024-02-13T11:24:20.741Z,10.07
2024-02-13T11:25:20.736Z,10.12
2024-02-13T11:26:20.750Z,9.99
2024-02-13T11:27:28.137Z,9.91
2024-02-13T11:28:20.819Z,9.94
2024-02-13T11:29:20.700Z,9.98
2024-02-13T11:30:20.686Z,9.94
2024-02-13T11:31:20.672Z,9.98
2024-02-13T11:32:20.757Z,10.10
2024-02-13T11:33:20.765Z,10.13
2024-02-13T11:34:21.062Z,10.12
2024-02-13T11:35:21.734Z,10.12
2024-02-13T11:36:20.845Z,10.13
2024-02-13T11:37:20.610Z,10.25
2024-02-13T11:38:20.615Z,10.19
2024-02-13T11:39:20.676Z,10.10
2024-02-13T11:40:20.581Z,9.87
2024-02-13T11:41:20.622Z,9.80
2024-02-13T11:42:20.527Z,9.76
2024-02-13T11:43:20.552Z,9.56
2024-02-13T11:44:20.528Z,9.41
2024-02-13T11:45:20.574Z,9.39
2024-02-13T11:46:20.474Z,9.40
2024-02-13T11:47:20.847Z,9.44
2024-02-13T11:48:20.625Z,9.48
2024-02-13T11:49:20.772Z,9.58
2024-02-13T11:50:20.736Z,9.66
2024-02-13T11:51:20.606Z,9.82
2024-02-13T11:52:20.458Z,9.97
2024-02-13T11:53:20.793Z,9.98
2024-02-13T11:54:20.387Z,9.87
2024-02-13T11:55:20.434Z,9.92
2024-02-13T11:56:20.508Z,9.97
2024-02-13T11:57:20.494Z,9.91
2024-02-13T11:58:20.519Z,9.89
2024-02-13T11:59:20.361Z,10.01
2024-02-13T12:00:21.177Z,10.07
2024-02-13T12:01:20.390Z,11.02
2024-02-13T12:02:20.408Z,11.05
2024-02-13T12:03:20.371Z,10.92
2024-02-13T12:04:20.353Z,10.89
2024-02-13T12:05:20.930Z,10.76
2024-02-13T12:06:20.319Z,10.81
2024-02-13T12:07:20.439Z,10.84
2024-02-13T12:08:20.339Z,11.88
2024-02-13T12:09:20.250Z,13.25
2024-02-13T12:10:20.323Z,12.76
2024-02-13T12:11:20.348Z,12.21
2024-02-13T12:12:20.266Z,11.62
2024-02-13T12:13:20.251Z,11.25
2024-02-13T12:14:20.335Z,11.10
2024-02-13T12:15:20.218Z,11.04
2024-02-13T12:16:20.244Z,10.92
2024-02-13T12:17:20.220Z,10.74
2024-02-13T12:18:20.334Z,10.76
2024-02-13T12:19:20.282Z,10.76
2024-02-13T12:20:20.408Z,10.74
2024-02-13T12:21:20.257Z,10.64
2024-02-13T12:22:20.196Z,10.57
2024-02-13T12:23:20.257Z,10.37
2024-02-13T12:24:20.169Z,10.38
2024-02-13T12:25:20.244Z,10.42
2024-02-13T12:26:20.194Z,10.34
2024-02-13T12:27:20.210Z,10.35
2024-02-13T12:28:20.130Z,10.42
2024-02-13T12:29:20.139Z,10.51
2024-02-13T12:30:20.078Z,10.57
2024-02-13T12:31:20.181Z,10.61
2024-02-13T12:32:20.137Z,10.44
2024-02-13T12:33:20.208Z,10.49
2024-02-13T12:34:20.445Z,10.37
2024-02-13T12:35:20.075Z,10.20
2024-02-13T12:36:20.488Z,9.95
2024-02-13T12:37:20.193Z,10.05
2024-02-13T12:38:20.089Z,9.97
2024-02-13T12:39:19.977Z,9.97
2024-02-13T12:40:20.059Z,10.01
2024-02-13T12:41:20.074Z,10.15
2024-02-13T12:42:20.048Z,10.33
2024-02-13T12:43:20.062Z,10.38
2024-02-13T12:44:20.157Z,10.49
2024-02-13T12:45:19.983Z,10.26
2024-02-13T12:46:20.076Z,9.97
2024-02-13T12:47:20.134Z,9.58
2024-02-13T12:48:20.158Z,9.39
2024-02-13T12:49:20.094Z,9.23
2024-02-13T12:50:20.064Z,9.21
2024-02-13T12:51:20.073Z,9.14
2024-02-13T12:52:19.876Z,9.98
2024-02-13T12:53:19.968Z,10.97
2024-02-13T12:54:19.909Z,11.10
2024-02-13T12:55:19.988Z,10.69
2024-02-13T12:56:19.890Z,10.42
2024-02-13T12:57:19.867Z,10.23
2024-02-13T12:58:19.858Z,10.04
2024-02-13T12:59:19.984Z,9.89
2024-02-13T13:00:19.860Z,9.69
2024-02-13T13:01:19.848Z,9.44
2024-02-13T13:02:19.893Z,9.39
2024-02-13T13:03:19.785Z,9.32
2024-02-13T13:04:19.851Z,9.29
2024-02-13T13:05:19.839Z,9.06
2024-02-13T13:06:19.876Z,9.10
2024-02-13T13:07:19.770Z,9.13
2024-02-13T13:08:19.777Z,9.18
2024-02-13T13:09:26.379Z,9.32
2024-02-13T13:10:19.834Z,9.55
2024-02-13T13:11:19.846Z,9.43
2024-02-13T13:12:19.761Z,9.40
2024-02-13T13:13:19.718Z,9.46